Time;durP1;ratioP1;P1;durP2;ratioP2;P2;SDS_P1;SDS_P2;PMS_P1;PMS_P2;Temp;Humidity;BMP_temperature;BMP_pressure;BME280_temperature;BME280_humidity;BME280_pressure;Samples;Min_cycle;Max_cycle;Signal;HPM_P1;HPM_P2
2022/12/02 00:01:57;;;;;;;63.57;22.07;;;;;;;;;;4971070;28;20607;-77
2022/12/02 00:04:25;;;;;;;69.73;22.20;;;;;;;;;;4971189;28;20019;-76
2022/12/02 00:06:53;;;;;;;62.97;24.80;;;;;;;;;;4971285;28;20027;-76
2022/12/02 00:09:33;;;;;;;70.33;23.23;;;;;;;;;;4971058;28;20022;-75
2022/12/02 00:12:00;;;;;;;62.63;21.33;;;;;;;;;;4970940;28;20099;-76
2022/12/02 00:14:28;;;;;;;67.97;22.97;;;;;;;;;;4971249;28;20019;-76
2022/12/02 00:16:54;;;;;;;72.60;23.63;;;;;;;;;;4972119;28;20035;-76
2022/12/02 00:19:21;;;;;;;73.53;23.23;;;;;;;;;;4971708;28;20038;-76
2022/12/02 00:21:48;;;;;;;63.77;21.63;;;;;;;;;;4970755;28;20360;-76
2022/12/02 00:24:14;;;;;;;64.43;22.43;;;;;;;;;;4971003;28;20023;-76
2022/12/02 00:26:40;;;;;;;64.27;23.47;;;;;;;;;;4979691;28;20065;-75
2022/12/02 00:29:06;;;;;;;55.93;21.67;;;;;;;;;;4991620;28;20376;-76
2022/12/02 00:31:31;;;;;;;59.90;23.30;;;;;;;;;;4994312;28;20126;-76
2022/12/02 00:33:58;;;;;;;62.80;23.17;;;;;;;;;;4993080;28;20070;-75
2022/12/02 00:36:23;;;;;;;63.23;22.80;;;;;;;;;;5009256;28;20034;-76
2022/12/02 00:38:49;;;;;;;72.70;24.33;;;;;;;;;;4994400;28;20720;-76
2022/12/02 00:41:14;;;;;;;69.53;22.57;;;;;;;;;;4994046;28;20566;-76
2022/12/02 00:46:36;;;;;;;55.73;22.20;;;;;;;;;;4994166;28;20108;-76
2022/12/02 00:49:05;;;;;;;61.70;22.83;;;;;;;;;;4992410;28;20034;-75
2022/12/02 00:51:31;;;;;;;62.80;22.27;;;;;;;;;;4992498;28;20117;-75
2022/12/02 00:53:57;;;;;;;60.60;22.30;;;;;;;;;;4994023;28;20363;-76
2022/12/02 00:56:22;;;;;;;65.23;22.33;;;;;;;;;;4994138;28;20050;-76
2022/12/02 00:58:48;;;;;;;66.03;24.23;;;;;;;;;;4992405;28;20553;-76
2022/12/02 01:01:14;;;;;;;59.10;21.83;;;;;;;;;;4992612;28;20469;-76
2022/12/02 01:03:39;;;;;;;63.30;21.33;;;;;;;;;;4994344;28;20041;-76
2022/12/02 01:06:05;;;;;;;60.87;22.20;;;;;;;;;;4993322;28;20030;-76
2022/12/02 01:08:30;;;;;;;58.73;21.03;;;;;;;;;;4993865;28;20027;-75
2022/12/02 01:10:57;;;;;;;61.73;20.30;;;;;;;;;;4994243;28;20037;-76
2022/12/02 01:13:25;;;;;;;67.13;22.50;;;;;;;;;;4992309;28;20060;-76
2022/12/02 01:15:51;;;;;;;61.57;21.07;;;;;;;;;;4993598;28;20027;-76
2022/12/02 01:18:17;;;;;;;58.23;20.93;;;;;;;;;;4993369;28;20052;-75
2022/12/02 01:20:42;;;;;;;62.70;21.77;;;;;;;;;;4993904;28;20041;-75
2022/12/02 01:23:08;;;;;;;62.60;23.30;;;;;;;;;;4993335;28;20034;-75
2022/12/02 01:25:35;;;;;;;71.17;22.93;;;;;;;;;;4993663;28;20113;-75
2022/12/02 01:28:01;;;;;;;66.57;22.53;;;;;;;;;;4972132;28;20176;-76
2022/12/02 01:30:27;;;;;;;63.00;22.40;;;;;;;;;;4973536;28;20558;-75
2022/12/02 01:32:52;;;;;;;61.70;22.50;;;;;;;;;;4988337;28;20022;-76
2022/12/02 01:35:18;;;;;;;66.90;22.73;;;;;;;;;;4973551;28;20031;-76
2022/12/02 01:37:43;;;;;;;62.97;21.40;;;;;;;;;;4973753;28;20030;-76
2022/12/02 01:40:11;;;;;;;70.30;22.20;;;;;;;;;;4987181;28;20035;-75
2022/12/02 01:42:38;;;;;;;52.80;20.40;;;;;;;;;;4988222;28;20391;-75
2022/12/02 01:45:05;;;;;;;52.80;21.43;;;;;;;;;;4972854;28;20428;-78
2022/12/02 01:47:30;;;;;;;60.10;23.47;;;;;;;;;;4972685;28;20672;-77
2022/12/02 01:49:56;;;;;;;62.40;22.67;;;;;;;;;;4972927;28;20100;-74
2022/12/02 01:52:22;;;;;;;54.20;20.87;;;;;;;;;;4972565;28;20035;-75
2022/12/02 01:54:49;;;;;;;55.53;21.10;;;;;;;;;;4973209;28;20066;-76
2022/12/02 01:57:14;;;;;;;68.07;20.87;;;;;;;;;;4973250;28;20640;-76
2022/12/02 01:59:42;;;;;;;60.60;20.97;;;;;;;;;;4971756;28;20063;-75
2022/12/02 02:02:36;;;;;;;49.57;19.63;;;;;;;;;;4972198;28;20062;-75
2022/12/02 02:05:15;;;;;;;66.37;20.70;;;;;;;;;;4972389;28;20023;-75
2022/12/02 02:07:42;;;;;;;59.40;20.60;;;;;;;;;;4975671;28;20399;-76
2022/12/02 02:10:08;;;;;;;54.77;21.30;;;;;;;;;;4975669;28;20049;-75
2022/12/02 02:12:35;;;;;;;60.37;20.40;;;;;;;;;;4972727;28;20023;-76
2022/12/02 02:15:06;;;;;;;54.83;20.63;;;;;;;;;;4973158;28;20030;-76
2022/12/02 02:17:32;;;;;;;60.28;21.35;;;;;;;;;;4971460;28;20134;-76
2022/12/02 02:19:58;;;;;;;53.43;20.10;;;;;;;;;;4971276;28;20110;-76
2022/12/02 02:22:30;;;;;;;50.97;18.37;;;;;;;;;;4972960;28;20023;-76
2022/12/02 02:24:56;;;;;;;49.67;18.83;;;;;;;;;;4971780;28;20122;-76
2022/12/02 02:27:22;;;;;;;53.13;20.70;;;;;;;;;;4987046;28;20101;-76
2022/12/02 02:29:48;;;;;;;53.90;19.87;;;;;;;;;;4992077;28;20041;-76
2022/12/02 02:32:13;;;;;;;53.20;20.47;;;;;;;;;;4990271;28;20104;-76
2022/12/02 02:34:39;;;;;;;50.37;18.27;;;;;;;;;;4990726;28;20030;-76
2022/12/02 02:37:05;;;;;;;48.93;16.90;;;;;;;;;;4991764;28;20026;-73
2022/12/02 02:39:30;;;;;;;41.77;17.97;;;;;;;;;;4990461;28;20390;-76
2022/12/02 02:41:56;;;;;;;54.40;20.07;;;;;;;;;;4992131;28;20097;-76
2022/12/02 02:44:23;;;;;;;46.77;18.10;;;;;;;;;;4990542;28;20045;-75
2022/12/02 02:46:49;;;;;;;49.93;17.97;;;;;;;;;;4992055;28;20034;-75
2022/12/02 02:49:15;;;;;;;43.73;16.00;;;;;;;;;;4991751;28;20757;-75
2022/12/02 02:51:40;;;;;;;45.27;17.00;;;;;;;;;;4991762;28;20077;-75
2022/12/02 02:54:06;;;;;;;50.80;18.83;;;;;;;;;;4991370;28;20026;-76
2022/12/02 02:56:32;;;;;;;44.90;19.73;;;;;;;;;;4991603;28;20427;-76
2022/12/02 02:58:57;;;;;;;44.43;17.60;;;;;;;;;;4989332;28;20064;-76
2022/12/02 03:01:28;;;;;;;48.00;17.33;;;;;;;;;;4989688;28;20069;-76
2022/12/02 03:04:08;;;;;;;45.73;17.57;;;;;;;;;;4990763;28;20030;-76
2022/12/02 03:06:35;;;;;;;41.50;16.53;;;;;;;;;;4990138;28;20062;-76
2022/12/02 03:09:03;;;;;;;43.73;17.73;;;;;;;;;;5006449;28;20030;-77
2022/12/02 03:11:29;;;;;;;43.03;15.17;;;;;;;;;;4989904;28;20030;-76
2022/12/02 03:13:55;;;;;;;42.57;16.00;;;;;;;;;;4991464;28;20030;-76
2022/12/02 03:16:24;;;;;;;46.90;17.80;;;;;;;;;;4989713;28;20033;-76
2022/12/02 03:18:51;;;;;;;42.27;16.60;;;;;;;;;;4990143;28;20712;-75
2022/12/02 03:21:18;;;;;;;47.33;18.03;;;;;;;;;;4989656;28;20030;-75
2022/12/02 03:23:46;;;;;;;43.10;16.93;;;;;;;;;;4991237;28;20029;-75
2022/12/02 03:26:14;;;;;;;52.83;18.07;;;;;;;;;;4989401;28;20022;-75
2022/12/02 03:28:40;;;;;;;48.00;16.93;;;;;;;;;;5005980;28;20030;-75
2022/12/02 03:31:06;;;;;;;46.30;15.70;;;;;;;;;;4989765;28;20022;-76
2022/12/02 03:33:32;;;;;;;46.13;17.70;;;;;;;;;;4989818;28;20027;-76
2022/12/02 03:35:57;;;;;;;46.37;17.07;;;;;;;;;;4989883;28;20049;-76
2022/12/02 03:38:24;;;;;;;38.90;15.90;;;;;;;;;;4990899;28;20426;-76
2022/12/02 03:40:49;;;;;;;43.17;17.33;;;;;;;;;;4989675;28;20035;-75
2022/12/02 03:43:15;;;;;;;42.33;17.73;;;;;;;;;;4990971;28;20030;-75
2022/12/02 03:45:41;;;;;;;43.17;16.87;;;;;;;;;;4992188;28;20029;-76
2022/12/02 03:48:08;;;;;;;51.73;18.37;;;;;;;;;;4990995;28;20382;-75
2022/12/02 03:50:33;;;;;;;45.53;17.80;;;;;;;;;;4989122;28;20019;-75
2022/12/02 03:52:59;;;;;;;61.57;18.10;;;;;;;;;;4990733;28;20147;-75
2022/12/02 03:55:24;;;;;;;42.87;16.80;;;;;;;;;;4990557;28;20084;-74
2022/12/02 03:57:50;;;;;;;47.93;17.27;;;;;;;;;;4989443;28;20117;-75
2022/12/02 04:00:16;;;;;;;46.57;18.67;;;;;;;;;;5005160;28;20046;-75
2022/12/02 04:02:41;;;;;;;52.00;17.60;;;;;;;;;;4989996;28;20026;-76
2022/12/02 04:05:07;;;;;;;40.43;15.60;;;;;;;;;;4990463;28;20620;-75
2022/12/02 04:07:32;;;;;;;45.97;17.00;;;;;;;;;;4988596;28;20041;-75
2022/12/02 04:09:58;;;;;;;51.67;19.03;;;;;;;;;;4990862;28;20097;-75
2022/12/02 04:12:23;;;;;;;51.23;17.83;;;;;;;;;;4989090;28;20053;-75
2022/12/02 04:14:49;;;;;;;43.63;17.70;;;;;;;;;;4989184;28;20482;-76
2022/12/02 04:17:14;;;;;;;45.00;16.70;;;;;;;;;;4990415;28;20065;-76
2022/12/02 04:19:40;;;;;;;48.10;18.37;;;;;;;;;;4988960;28;20200;-75
2022/12/02 04:22:05;;;;;;;54.10;18.07;;;;;;;;;;4990549;28;20054;-76
2022/12/02 04:24:31;;;;;;;42.13;17.43;;;;;;;;;;4988933;28;20034;-76
2022/12/02 04:26:56;;;;;;;52.60;18.40;;;;;;;;;;4989561;28;20458;-75
2022/12/02 04:29:22;;;;;;;38.23;15.37;;;;;;;;;;4989836;28;20045;-75
2022/12/02 04:31:47;;;;;;;41.93;17.13;;;;;;;;;;5005012;28;20125;-75
2022/12/02 04:34:13;;;;;;;50.50;18.30;;;;;;;;;;4988582;28;20026;-75
2022/12/02 04:36:38;;;;;;;49.97;18.17;;;;;;;;;;4990358;28;20027;-75
2022/12/02 04:39:04;;;;;;;48.13;18.33;;;;;;;;;;4990156;28;20105;-75
2022/12/02 04:41:29;;;;;;;67.03;20.37;;;;;;;;;;4988946;28;20033;-76
2022/12/02 04:43:55;;;;;;;50.30;18.43;;;;;;;;;;4989167;28;20516;-75
2022/12/02 04:46:21;;;;;;;45.33;17.63;;;;;;;;;;4990505;28;20517;-76
2022/12/02 04:48:46;;;;;;;54.37;19.77;;;;;;;;;;4988656;28;20033;-75
2022/12/02 04:51:12;;;;;;;57.50;18.17;;;;;;;;;;4989902;28;20026;-76
2022/12/02 04:53:37;;;;;;;54.90;19.70;;;;;;;;;;4990326;28;20363;-75
2022/12/02 04:56:02;;;;;;;45.33;18.20;;;;;;;;;;4990312;28;20042;-76
2022/12/02 04:58:28;;;;;;;44.57;16.37;;;;;;;;;;4989673;28;20038;-76
2022/12/02 05:00:53;;;;;;;49.80;18.33;;;;;;;;;;4988674;28;20029;-76
2022/12/02 05:03:19;;;;;;;48.40;18.90;;;;;;;;;;5004643;28;20522;-76
2022/12/02 05:05:44;;;;;;;53.13;18.07;;;;;;;;;;4988809;28;20410;-75
2022/12/02 05:08:10;;;;;;;45.57;18.90;;;;;;;;;;4988791;28;20041;-76
2022/12/02 05:10:35;;;;;;;52.27;19.10;;;;;;;;;;4990000;28;20018;-76
2022/12/02 05:13:02;;;;;;;46.00;17.10;;;;;;;;;;5005201;28;20137;-75
2022/12/02 05:15:27;;;;;;;45.43;19.37;;;;;;;;;;5006421;28;20751;-76
2022/12/02 05:17:53;;;;;;;59.73;23.50;;;;;;;;;;4992812;28;20030;-76
2022/12/02 05:20:18;;;;;;;46.83;17.93;;;;;;;;;;4995692;28;20028;-76
2022/12/02 05:22:44;;;;;;;41.23;15.93;;;;;;;;;;4997972;28;20030;-76
2022/12/02 05:25:09;;;;;;;46.30;18.53;;;;;;;;;;5011467;28;20018;-77
2022/12/02 05:27:38;;;;;;;44.17;17.33;;;;;;;;;;4976765;28;20062;-75
2022/12/02 05:30:05;;;;;;;45.43;16.77;;;;;;;;;;4973125;28;20113;-75
2022/12/02 05:32:30;;;;;;;44.40;17.00;;;;;;;;;;4972688;28;20134;-76
2022/12/02 05:34:55;;;;;;;50.20;17.07;;;;;;;;;;4988922;28;20105;-76
2022/12/02 05:37:21;;;;;;;60.27;18.93;;;;;;;;;;4972414;28;20018;-75
2022/12/02 05:39:46;;;;;;;46.57;18.60;;;;;;;;;;4972378;28;20029;-75
2022/12/02 05:42:13;;;;;;;37.03;15.97;;;;;;;;;;4972318;28;20031;-74
2022/12/02 05:44:39;;;;;;;54.03;15.93;;;;;;;;;;4971709;28;20027;-75
2022/12/02 05:47:13;;;;;;;48.93;19.87;;;;;;;;;;4973523;28;20405;-76
2022/12/02 05:49:39;;;;;;;44.80;15.97;;;;;;;;;;4972240;28;20049;-76
2022/12/02 05:52:19;;;;;;;42.87;16.47;;;;;;;;;;4973141;28;20038;-75
2022/12/02 05:54:45;;;;;;;45.93;17.73;;;;;;;;;;4971795;28;20088;-77
2022/12/02 05:57:11;;;;;;;41.40;15.33;;;;;;;;;;4971968;28;20443;-75
2022/12/02 05:59:36;;;;;;;46.73;17.57;;;;;;;;;;4972717;28;20069;-76
2022/12/02 06:02:02;;;;;;;62.07;16.30;;;;;;;;;;4981402;28;20471;-76
2022/12/02 06:04:31;;;;;;;48.20;17.57;;;;;;;;;;4988621;28;20025;-75
2022/12/02 06:07:01;;;;;;;37.00;15.30;;;;;;;;;;5000333;28;20034;-77
2022/12/02 06:09:29;;;;;;;43.20;17.13;;;;;;;;;;5008882;28;20465;-77
2022/12/02 06:11:56;;;;;;;54.77;18.37;;;;;;;;;;5009008;28;20034;-75
2022/12/02 06:14:27;;;;;;;43.07;18.00;;;;;;;;;;5008414;28;20032;-77
2022/12/02 06:17:16;;;;;;;37.42;16.77;;;;;;;;;;4987624;28;20049;-79
2022/12/02 06:19:43;;;;;;;47.23;17.50;;;;;;;;;;4986915;28;20499;-79
2022/12/02 06:22:16;;;;;;;46.07;17.20;;;;;;;;;;4998217;28;20042;-77
2022/12/02 06:24:42;;;;;;;61.20;20.93;;;;;;;;;;5011822;28;20474;-78
2022/12/02 06:27:13;;;;;;;50.87;18.27;;;;;;;;;;5023626;28;20062;-78
2022/12/02 06:29:45;;;;;;;56.42;18.15;;;;;;;;;;4997191;28;20021;-81
2022/12/02 06:32:17;;;;;;;46.63;17.13;;;;;;;;;;4992485;28;20674;-81
2022/12/02 06:34:43;;;;;;;55.88;18.15;;;;;;;;;;5005785;28;20462;-78
2022/12/02 06:37:18;;;;;;;53.60;17.93;;;;;;;;;;4972254;28;20456;-79
2022/12/02 06:39:46;;;;;;;46.13;17.93;;;;;;;;;;4996088;28;20824;-78
2022/12/02 06:42:34;;;;;;;51.70;18.57;;;;;;;;;;4985665;28;20038;-82
2022/12/02 06:45:13;;;;;;;51.53;17.27;;;;;;;;;;5008178;28;20483;-79
2022/12/02 06:48:10;;;;;;;52.23;18.80;;;;;;;;;;4971170;28;21499;-73
2022/12/02 06:50:41;;;;;;;50.50;17.23;;;;;;;;;;4979068;28;20022;-80
2022/12/02 06:53:40;;;;;;;49.03;17.50;;;;;;;;;;4986415;28;20045;-79
2022/12/02 06:56:28;;;;;;;50.13;18.47;;;;;;;;;;4962202;28;20120;-78
2022/12/02 06:59:01;;;;;;;49.77;16.77;;;;;;;;;;4987511;28;20046;-79
2022/12/02 07:01:27;;;;;;;51.60;19.13;;;;;;;;;;4978553;28;20030;-78
2022/12/02 07:04:24;;;;;;;45.90;17.83;;;;;;;;;;4979470;28;20026;-81
2022/12/02 07:06:51;;;;;;;56.37;17.77;;;;;;;;;;4988954;28;20038;-83
2022/12/02 07:09:39;;;;;;;43.87;17.50;;;;;;;;;;4988117;28;20041;-77
2022/12/02 07:12:35;;;;;;;50.33;17.57;;;;;;;;;;5007249;28;20038;-79
2022/12/02 07:15:12;;;;;;;49.97;16.80;;;;;;;;;;4986372;28;20072;-80
2022/12/02 07:17:40;;;;;;;50.20;18.43;;;;;;;;;;5006688;28;20034;-85
2022/12/02 07:20:10;;;;;;;47.50;18.50;;;;;;;;;;4992136;28;20037;-85
2022/12/02 07:22:44;;;;;;;51.90;18.93;;;;;;;;;;4987129;28;20045;-78
2022/12/02 07:25:16;;;;;;;55.30;19.93;;;;;;;;;;4980871;28;20038;-80
2022/12/02 07:27:46;;;;;;;59.45;19.23;;;;;;;;;;4986695;28;20042;-80
2022/12/02 07:30:40;;;;;;;49.20;18.37;;;;;;;;;;4986616;28;20050;-81
2022/12/02 07:33:05;;;;;;;49.93;17.97;;;;;;;;;;4984823;28;20034;-78
2022/12/02 07:35:31;;;;;;;56.30;19.10;;;;;;;;;;4989885;28;20026;-80
2022/12/02 07:37:58;;;;;;;58.37;19.80;;;;;;;;;;4981405;28;20537;-81
2022/12/02 07:40:24;;;;;;;57.73;21.17;;;;;;;;;;4983396;28;20041;-79
2022/12/02 07:42:50;;;;;;;54.87;19.10;;;;;;;;;;4988589;28;20030;-75
2022/12/02 07:45:17;;;;;;;49.93;18.23;;;;;;;;;;4979326;28;20026;-81
2022/12/02 07:47:43;;;;;;;62.43;23.23;;;;;;;;;;4997746;28;20505;-77
2022/12/02 07:50:11;;;;;;;50.90;19.70;;;;;;;;;;4981324;28;20034;-79
2022/12/02 07:52:36;;;;;;;49.97;18.73;;;;;;;;;;4968616;28;20510;-80
2022/12/02 07:55:03;;;;;;;57.87;20.37;;;;;;;;;;5003560;28;20031;-82
2022/12/02 07:57:28;;;;;;;54.60;19.47;;;;;;;;;;5000247;28;20030;-80
2022/12/02 07:59:54;;;;;;;50.83;21.00;;;;;;;;;;4963201;28;20537;-78
2022/12/02 08:02:20;;;;;;;64.17;20.20;;;;;;;;;;4992890;28;20029;-82
2022/12/02 08:04:46;;;;;;;54.27;20.83;;;;;;;;;;4987298;28;20558;-78
2022/12/02 08:07:12;;;;;;;52.53;20.33;;;;;;;;;;4990330;28;20510;-78
2022/12/02 08:09:37;;;;;;;52.37;18.93;;;;;;;;;;4986580;28;20565;-77
2022/12/02 08:12:04;;;;;;;55.33;21.23;;;;;;;;;;4985854;28;20026;-80
2022/12/02 08:14:29;;;;;;;49.10;20.57;;;;;;;;;;4978675;28;20049;-79
2022/12/02 08:16:55;;;;;;;51.03;20.57;;;;;;;;;;4984297;28;20490;-80
2022/12/02 08:19:21;;;;;;;50.47;18.00;;;;;;;;;;4967307;28;20035;-81
2022/12/02 08:21:46;;;;;;;63.93;20.70;;;;;;;;;;4993347;28;20092;-81
2022/12/02 08:24:12;;;;;;;61.07;20.13;;;;;;;;;;4988759;28;20454;-86
2022/12/02 08:26:42;;;;;;;60.43;19.80;;;;;;;;;;4996921;28;20113;-85
2022/12/02 08:29:08;;;;;;;54.33;20.17;;;;;;;;;;4984626;28;20034;-80
2022/12/02 08:31:33;;;;;;;56.03;19.00;;;;;;;;;;4988802;28;20613;-79
2022/12/02 08:33:59;;;;;;;52.07;20.00;;;;;;;;;;4986463;28;20154;-79
2022/12/02 08:36:24;;;;;;;58.87;19.57;;;;;;;;;;4984012;28;20125;-78
2022/12/02 08:38:50;;;;;;;53.67;19.67;;;;;;;;;;4982964;28;20034;-79
2022/12/02 08:41:16;;;;;;;56.63;20.97;;;;;;;;;;4987839;28;20022;-79
2022/12/02 08:43:42;;;;;;;60.77;21.63;;;;;;;;;;4984676;28;20058;-80
2022/12/02 08:46:09;;;;;;;63.13;20.33;;;;;;;;;;4987702;28;20034;-80
2022/12/02 08:48:37;;;;;;;50.90;19.93;;;;;;;;;;4982392;28;20464;-81
2022/12/02 08:51:04;;;;;;;51.17;19.90;;;;;;;;;;5011537;28;20030;-78
2022/12/02 08:53:54;;;;;;;60.10;21.53;;;;;;;;;;4989501;28;20055;-85
2022/12/02 08:56:19;;;;;;;53.33;20.27;;;;;;;;;;4989044;28;20703;-83
2022/12/02 08:58:44;;;;;;;52.53;20.37;;;;;;;;;;4972595;28;20141;-82
2022/12/02 09:01:11;;;;;;;59.70;22.13;;;;;;;;;;4989320;28;20030;-85
2022/12/02 09:03:37;;;;;;;47.40;18.73;;;;;;;;;;4998260;28;20589;-79
2022/12/02 09:06:04;;;;;;;66.57;21.67;;;;;;;;;;4997619;28;20506;-79
2022/12/02 09:08:30;;;;;;;55.57;20.57;;;;;;;;;;4995272;28;20035;-79
2022/12/02 09:10:56;;;;;;;53.93;20.40;;;;;;;;;;4970642;28;20080;-82
2022/12/02 09:13:22;;;;;;;53.37;19.13;;;;;;;;;;4990797;28;20435;-80
2022/12/02 09:15:47;;;;;;;53.17;20.07;;;;;;;;;;4996687;28;20140;-77
2022/12/02 09:18:13;;;;;;;65.07;23.57;;;;;;;;;;5008913;28;20033;-78
2022/12/02 09:20:38;;;;;;;51.60;20.00;;;;;;;;;;4986283;28;20026;-82
2022/12/02 09:23:05;;;;;;;58.43;22.17;;;;;;;;;;4992538;28;20065;-78
2022/12/02 09:25:32;;;;;;;61.70;21.90;;;;;;;;;;5000358;28;20029;-84
2022/12/02 09:27:58;;;;;;;54.63;20.83;;;;;;;;;;4989917;28;20049;-86
2022/12/02 09:30:24;;;;;;;62.93;20.87;;;;;;;;;;4988215;28;20030;-82
2022/12/02 09:32:50;;;;;;;59.93;21.20;;;;;;;;;;5005791;28;20565;-78
2022/12/02 09:35:19;;;;;;;53.23;21.13;;;;;;;;;;4988273;28;20034;-79
2022/12/02 09:37:44;;;;;;;53.50;19.97;;;;;;;;;;4986167;28;20037;-79
2022/12/02 09:40:10;;;;;;;53.37;19.50;;;;;;;;;;4979368;28;20026;-80
2022/12/02 09:42:36;;;;;;;52.13;20.60;;;;;;;;;;4988023;28;20129;-80
2022/12/02 09:45:02;;;;;;;58.70;21.93;;;;;;;;;;4988870;28;20113;-82
2022/12/02 09:47:28;;;;;;;66.37;23.20;;;;;;;;;;4989247;28;20117;-80
2022/12/02 09:49:55;;;;;;;58.63;21.90;;;;;;;;;;4986713;28;20049;-82
2022/12/02 09:52:24;;;;;;;64.10;22.70;;;;;;;;;;4990277;28;20126;-77
2022/12/02 09:54:55;;;;;;;64.77;21.53;;;;;;;;;;4991087;28;20049;-79
2022/12/02 09:57:27;;;;;;;63.50;22.17;;;;;;;;;;4985909;28;20038;-85
2022/12/02 09:59:53;;;;;;;51.22;20.23;;;;;;;;;;4985370;28;20093;-82
2022/12/02 10:02:27;;;;;;;54.43;20.20;;;;;;;;;;4993426;28;20103;-81
2022/12/02 10:04:58;;;;;;;57.67;21.97;;;;;;;;;;4993802;28;20026;-81
2022/12/02 10:07:24;;;;;;;58.40;23.23;;;;;;;;;;4999980;28;20045;-79
2022/12/02 10:09:49;;;;;;;59.33;20.63;;;;;;;;;;4989956;28;20026;-78
2022/12/02 10:12:16;;;;;;;75.03;25.93;;;;;;;;;;4996985;28;20023;-80
2022/12/02 10:14:49;;;;;;;57.87;22.33;;;;;;;;;;4988882;28;20041;-78
2022/12/02 10:17:17;;;;;;;53.37;21.53;;;;;;;;;;5011612;28;20033;-82
2022/12/02 10:19:44;;;;;;;68.07;23.20;;;;;;;;;;4994263;28;20121;-80
2022/12/02 10:22:18;;;;;;;64.90;22.40;;;;;;;;;;4998862;28;20302;-79
2022/12/02 10:24:45;;;;;;;54.53;21.03;;;;;;;;;;4999433;28;20069;-81
2022/12/02 10:27:31;;;;;;;53.30;19.17;;;;;;;;;;4998234;28;20061;-81
2022/12/02 10:30:24;;;;;;;54.67;20.73;;;;;;;;;;4993303;28;20022;-86
2022/12/02 10:33:15;;;;;;;55.70;21.40;;;;;;;;;;4989767;28;20383;-83
2022/12/02 10:35:49;;;;;;;49.70;20.57;;;;;;;;;;4984926;28;20042;-83
2022/12/02 10:38:38;;;;;;;54.77;20.30;;;;;;;;;;5006155;28;20057;-85
2022/12/02 10:41:24;;;;;;;57.27;22.73;;;;;;;;;;4996586;28;20395;-85
2022/12/02 10:43:52;;;;;;;59.50;21.03;;;;;;;;;;4989166;28;20070;-82
2022/12/02 10:46:22;;;;;;;51.13;20.00;;;;;;;;;;4999055;28;20026;-80
2022/12/02 10:48:48;;;;;;;49.30;21.33;;;;;;;;;;4989511;28;20038;-83
2022/12/02 10:51:16;;;;;;;63.47;21.07;;;;;;;;;;4995265;28;20026;-81
2022/12/02 10:53:44;;;;;;;60.30;21.13;;;;;;;;;;4994520;28;20030;-82
2022/12/02 10:56:19;;;;;;;63.33;22.10;;;;;;;;;;4990217;28;20068;-82
2022/12/02 10:58:47;;;;;;;52.83;20.80;;;;;;;;;;4990157;28;20054;-79
2022/12/02 11:01:12;;;;;;;53.03;21.37;;;;;;;;;;4991238;28;20033;-80
2022/12/02 11:03:39;;;;;;;59.20;21.60;;;;;;;;;;4989146;28;20453;-78
2022/12/02 11:06:13;;;;;;;61.43;22.20;;;;;;;;;;4982571;28;20034;-83
2022/12/02 11:08:41;;;;;;;57.17;23.17;;;;;;;;;;4997948;28;20092;-80
2022/12/02 11:11:11;;;;;;;56.70;22.40;;;;;;;;;;4992169;28;20030;-84
2022/12/02 11:14:01;;;;;;;58.70;21.53;;;;;;;;;;4992839;28;20483;-81
2022/12/02 11:16:27;;;;;;;53.30;21.53;;;;;;;;;;5004626;28;20021;-80
2022/12/02 11:18:57;;;;;;;57.77;21.13;;;;;;;;;;5022250;28;20699;-80
2022/12/02 11:21:34;;;;;;;72.87;22.97;;;;;;;;;;4992281;28;20030;-84
2022/12/02 11:24:22;;;;;;;54.10;19.80;;;;;;;;;;4986684;28;20037;-82
2022/12/02 11:27:03;;;;;;;66.73;21.53;;;;;;;;;;4984356;28;20053;-82
2022/12/02 11:29:34;;;;;;;71.00;21.10;;;;;;;;;;4980047;28;20530;-81
2022/12/02 11:32:01;;;;;;;58.97;21.13;;;;;;;;;;4996004;28;20111;-83
2022/12/02 11:34:49;;;;;;;54.00;19.73;;;;;;;;;;4996412;28;20061;-83
2022/12/02 11:37:32;;;;;;;55.97;20.83;;;;;;;;;;4999233;28;20041;-83
2022/12/02 11:40:12;;;;;;;60.27;22.47;;;;;;;;;;5013164;28;20092;-83
2022/12/02 11:42:40;;;;;;;56.13;20.83;;;;;;;;;;5005351;28;20030;-85
2022/12/02 11:45:29;;;;;;;71.70;24.53;;;;;;;;;;5011747;28;20057;-84
2022/12/02 11:47:56;;;;;;;62.67;21.30;;;;;;;;;;4994114;28;20122;-85
2022/12/02 11:50:21;;;;;;;71.50;22.90;;;;;;;;;;4989084;28;20026;-82
2022/12/02 11:52:57;;;;;;;58.03;22.03;;;;;;;;;;5007921;28;20581;-83
2022/12/02 11:55:32;;;;;;;61.90;21.60;;;;;;;;;;4983146;28;20121;-80
2022/12/02 11:57:58;;;;;;;64.70;21.83;;;;;;;;;;4982122;28;20026;-80
2022/12/02 12:00:32;;;;;;;68.50;23.23;;;;;;;;;;4991337;28;20042;-82
2022/12/02 12:03:18;;;;;;;68.30;22.33;;;;;;;;;;4990201;28;20041;-82
2022/12/02 12:06:11;;;;;;;59.13;21.20;;;;;;;;;;4993156;28;20507;-78
2022/12/02 12:08:45;;;;;;;53.43;21.97;;;;;;;;;;4991194;28;20110;-80
2022/12/02 12:11:35;;;;;;;63.53;22.23;;;;;;;;;;5000064;28;20144;-82
2022/12/02 12:14:10;;;;;;;64.97;23.37;;;;;;;;;;5015796;28;20031;-83
2022/12/02 12:16:45;;;;;;;55.17;20.63;;;;;;;;;;4983808;28;20121;-83
2022/12/02 12:19:18;;;;;;;54.97;21.43;;;;;;;;;;4987238;28;20050;-78
2022/12/02 12:21:51;;;;;;;61.87;21.80;;;;;;;;;;5011239;28;20030;-81
2022/12/02 12:24:20;;;;;;;57.27;21.20;;;;;;;;;;4991682;28;20034;-77
2022/12/02 12:26:55;;;;;;;66.57;22.57;;;;;;;;;;4995039;28;20034;-79
2022/12/02 12:29:24;;;;;;;62.03;22.10;;;;;;;;;;5001206;28;20045;-79
2022/12/02 12:31:49;;;;;;;63.37;21.83;;;;;;;;;;4993936;28;20112;-78
2022/12/02 12:34:15;;;;;;;65.53;23.37;;;;;;;;;;4993933;28;20109;-82
2022/12/02 12:36:42;;;;;;;61.60;23.23;;;;;;;;;;4983801;28;20133;-78
2022/12/02 12:39:08;;;;;;;57.70;22.33;;;;;;;;;;4983580;28;20072;-77
2022/12/02 12:41:36;;;;;;;63.13;22.53;;;;;;;;;;4987668;28;20037;-79
2022/12/02 12:44:01;;;;;;;64.30;23.33;;;;;;;;;;4989667;28;20034;-81
2022/12/02 12:46:27;;;;;;;59.63;23.83;;;;;;;;;;4988957;28;20053;-79
2022/12/02 12:48:52;;;;;;;58.60;21.83;;;;;;;;;;4997484;28;20108;-77
2022/12/02 12:51:18;;;;;;;68.80;23.97;;;;;;;;;;4986411;28;20073;-79
2022/12/02 12:53:43;;;;;;;64.43;23.07;;;;;;;;;;4987969;28;20037;-81
2022/12/02 12:56:08;;;;;;;63.70;21.47;;;;;;;;;;4992903;28;20379;-80
2022/12/02 12:58:34;;;;;;;56.10;22.80;;;;;;;;;;4991696;28;20065;-75
2022/12/02 13:01:00;;;;;;;69.77;23.33;;;;;;;;;;4985977;28;20081;-78
2022/12/02 13:03:25;;;;;;;63.20;22.73;;;;;;;;;;4988688;28;20061;-76
2022/12/02 13:05:52;;;;;;;70.63;25.27;;;;;;;;;;4987906;28;20456;-81
2022/12/02 13:08:18;;;;;;;66.53;24.17;;;;;;;;;;4993207;28;20480;-78
2022/12/02 13:10:43;;;;;;;62.67;24.63;;;;;;;;;;4990585;28;20116;-80
2022/12/02 13:13:09;;;;;;;70.07;25.50;;;;;;;;;;4990853;28;20046;-80
2022/12/02 13:15:35;;;;;;;61.27;24.40;;;;;;;;;;4997508;28;20564;-79
2022/12/02 13:18:01;;;;;;;64.33;23.47;;;;;;;;;;5003945;28;20127;-78
2022/12/02 13:20:27;;;;;;;67.23;26.40;;;;;;;;;;4993074;28;20066;-77
2022/12/02 13:22:54;;;;;;;67.67;25.40;;;;;;;;;;4983736;28;20031;-78
2022/12/02 13:25:19;;;;;;;77.13;23.53;;;;;;;;;;4988962;28;20081;-79
2022/12/02 13:27:45;;;;;;;66.47;23.40;;;;;;;;;;4998854;28;20062;-78
2022/12/02 13:30:17;;;;;;;65.23;23.37;;;;;;;;;;4986690;28;20061;-81
2022/12/02 13:32:46;;;;;;;72.38;24.33;;;;;;;;;;4995780;28;20121;-82
2022/12/02 13:35:13;;;;;;;71.43;24.00;;;;;;;;;;5004369;28;20037;-78
2022/12/02 13:37:39;;;;;;;63.60;22.53;;;;;;;;;;4996838;28;21725;-82
2022/12/02 13:40:07;;;;;;;72.83;23.43;;;;;;;;;;4990088;28;20028;-84
2022/12/02 13:42:32;;;;;;;68.13;22.33;;;;;;;;;;4992141;28;20042;-83
2022/12/02 13:44:58;;;;;;;74.73;24.50;;;;;;;;;;4992203;28;20026;-83
2022/12/02 13:47:24;;;;;;;56.17;21.63;;;;;;;;;;4998861;28;20021;-82
2022/12/02 13:49:49;;;;;;;74.17;26.43;;;;;;;;;;4996826;28;20030;-80
2022/12/02 13:52:15;;;;;;;69.30;23.50;;;;;;;;;;4992300;28;20310;-82
2022/12/02 13:54:40;;;;;;;67.23;23.73;;;;;;;;;;4993412;28;20578;-82
2022/12/02 13:57:06;;;;;;;59.40;22.70;;;;;;;;;;5007635;28;20030;-82
2022/12/02 13:59:31;;;;;;;68.63;23.77;;;;;;;;;;4965446;28;20396;-80
2022/12/02 14:01:57;;;;;;;74.77;29.40;;;;;;;;;;4992633;28;20391;-83
2022/12/02 14:04:23;;;;;;;64.97;23.47;;;;;;;;;;4989379;28;20045;-81
2022/12/02 14:06:49;;;;;;;60.53;22.23;;;;;;;;;;4989892;28;20046;-83
2022/12/02 14:09:15;;;;;;;65.00;24.23;;;;;;;;;;4991497;28;20043;-80
2022/12/02 14:11:40;;;;;;;65.63;25.40;;;;;;;;;;4991132;28;20678;-78
2022/12/02 14:14:08;;;;;;;69.90;25.73;;;;;;;;;;5008773;28;20133;-84
2022/12/02 14:16:33;;;;;;;70.13;24.37;;;;;;;;;;4981221;28;20038;-78
2022/12/02 14:18:59;;;;;;;72.27;25.43;;;;;;;;;;4997003;28;20049;-82
2022/12/02 14:21:25;;;;;;;71.93;25.23;;;;;;;;;;4992409;28;20022;-84
2022/12/02 14:23:51;;;;;;;62.90;24.20;;;;;;;;;;4987941;28;20038;-80
2022/12/02 14:26:17;;;;;;;62.70;24.63;;;;;;;;;;5000030;28;20486;-82
2022/12/02 14:28:43;;;;;;;73.10;26.20;;;;;;;;;;4985908;28;20038;-81